createdAt,value
2022-07-29T00:00:10.607Z,0.85
2022-07-29T00:02:37.465Z,0.85
2022-07-29T00:05:05.528Z,0.75
2022-07-29T00:10:35.258Z,1.13
2022-07-29T00:13:02.475Z,1.00
2022-07-29T00:15:29.200Z,0.77
2022-07-29T00:17:55.945Z,0.80
2022-07-29T00:20:22.659Z,0.98
2022-07-29T00:22:49.383Z,0.98
2022-07-29T00:25:16.318Z,0.85
2022-07-29T00:27:42.983Z,0.90
2022-07-29T00:30:10.598Z,0.98
2022-07-29T00:32:37.273Z,0.60
2022-07-29T00:35:23.471Z,0.90
2022-07-29T00:37:50.087Z,0.98
2022-07-29T00:40:16.835Z,0.90
2022-07-29T00:42:52.020Z,0.80
2022-07-29T00:45:19.561Z,0.88
2022-07-29T00:47:46.324Z,1.10
2022-07-29T00:50:13.853Z,1.23
2022-07-29T00:52:42.977Z,0.90
2022-07-29T00:55:12.701Z,0.85
2022-07-29T00:57:40.653Z,0.90
2022-07-29T01:00:10.398Z,0.80
2022-07-29T01:02:37.401Z,1.00
2022-07-29T01:05:06.024Z,0.85
2022-07-29T01:07:35.861Z,0.70
2022-07-29T01:10:05.096Z,1.00
2022-07-29T01:12:34.392Z,0.90
2022-07-29T01:15:03.664Z,1.00
2022-07-29T01:17:52.537Z,1.17
2022-07-29T01:20:48.218Z,0.95
2022-07-29T01:23:36.527Z,1.08
2022-07-29T01:26:24.402Z,1.20
2022-07-29T01:29:38.589Z,0.98
2022-07-29T01:32:27.836Z,1.05
2022-07-29T01:35:17.148Z,0.90
2022-07-29T01:38:06.421Z,1.00
2022-07-29T01:40:39.196Z,1.00
2022-07-29T01:43:22.051Z,0.90
2022-07-29T01:46:01.895Z,1.08
2022-07-29T01:48:44.022Z,0.95
2022-07-29T01:51:20.750Z,0.88
2022-07-29T01:53:53.884Z,0.90
2022-07-29T01:56:22.166Z,0.98
2022-07-29T01:58:50.354Z,0.93
2022-07-29T02:01:17.852Z,0.82
2022-07-29T02:03:47.047Z,1.00
2022-07-29T02:06:18.836Z,0.90
2022-07-29T02:08:48.263Z,0.95
2022-07-29T02:11:15.416Z,0.75
2022-07-29T02:13:42.846Z,1.08
2022-07-29T02:16:11.654Z,1.00
2022-07-29T02:18:42.712Z,1.10
2022-07-29T02:21:15.088Z,1.40
2022-07-29T02:23:50.285Z,1.60
2022-07-29T02:26:20.336Z,1.40
2022-07-29T02:28:48.331Z,1.38
2022-07-29T02:31:18.257Z,1.83
2022-07-29T02:33:46.493Z,1.60
2022-07-29T02:36:13.793Z,1.80
2022-07-29T02:38:52.632Z,1.70
2022-07-29T02:41:30.848Z,1.60
2022-07-29T02:44:04.788Z,1.90
2022-07-29T02:46:36.863Z,1.92
2022-07-29T02:49:16.881Z,1.48
2022-07-29T02:52:09.569Z,1.70
2022-07-29T02:54:58.109Z,1.70
2022-07-29T02:57:53.945Z,1.77
2022-07-29T03:00:24.655Z,1.90
2022-07-29T03:02:54.800Z,1.55
2022-07-29T03:05:22.429Z,1.95
2022-07-29T03:07:56.966Z,2.00
2022-07-29T03:10:26.739Z,2.85
2022-07-29T03:12:55.322Z,1.95
2022-07-29T03:15:22.822Z,2.00
2022-07-29T03:17:52.759Z,1.90
2022-07-29T03:20:20.009Z,1.98
2022-07-29T03:22:49.497Z,2.00
2022-07-29T03:25:17.720Z,2.20
2022-07-29T03:27:44.665Z,2.28
2022-07-29T03:30:12.988Z,2.00
2022-07-29T03:32:48.715Z,2.20
2022-07-29T03:35:17.419Z,2.20
2022-07-29T03:37:45.028Z,1.85
2022-07-29T03:40:15.683Z,2.10
2022-07-29T03:42:44.458Z,2.17
2022-07-29T03:45:16.627Z,2.30
2022-07-29T03:47:51.100Z,2.42
2022-07-29T03:50:21.127Z,2.35
2022-07-29T03:52:49.078Z,2.22
2022-07-29T03:55:16.699Z,2.33
2022-07-29T03:57:46.169Z,2.17
2022-07-29T04:00:13.521Z,2.03
2022-07-29T04:02:41.006Z,2.75
2022-07-29T04:05:13.667Z,2.33
2022-07-29T04:07:41.910Z,2.80
2022-07-29T04:10:09.560Z,2.33
2022-07-29T04:12:36.248Z,2.35
2022-07-29T04:15:04.929Z,2.55
2022-07-29T04:17:31.566Z,2.47
2022-07-29T04:19:58.316Z,2.38
2022-07-29T04:22:24.964Z,2.65
2022-07-29T04:24:52.486Z,2.47
2022-07-29T04:27:19.354Z,2.70
2022-07-29T04:29:56.302Z,2.67
2022-07-29T04:32:24.021Z,2.28
2022-07-29T04:34:50.660Z,2.10
2022-07-29T04:37:17.453Z,2.35
2022-07-29T04:39:44.158Z,2.38
2022-07-29T04:42:10.742Z,2.50
2022-07-29T04:44:39.682Z,2.13
2022-07-29T04:47:09.826Z,2.40
2022-07-29T04:49:39.910Z,2.40
2022-07-29T04:52:07.153Z,2.00
2022-07-29T04:54:34.077Z,2.25
2022-07-29T04:57:00.760Z,2.47
2022-07-29T04:59:28.014Z,2.70
2022-07-29T05:01:54.872Z,2.35
2022-07-29T05:04:21.709Z,2.25
2022-07-29T05:06:48.621Z,2.28
2022-07-29T05:09:15.746Z,2.33
2022-07-29T05:11:42.362Z,2.15
2022-07-29T05:14:09.001Z,2.53
2022-07-29T05:16:36.199Z,2.05
2022-07-29T05:19:02.850Z,2.15
2022-07-29T05:21:29.495Z,2.55
2022-07-29T05:23:56.252Z,2.85
2022-07-29T05:26:22.985Z,2.38
2022-07-29T05:28:49.775Z,2.10
2022-07-29T05:31:16.845Z,2.40
2022-07-29T05:33:43.842Z,2.20
2022-07-29T05:36:10.495Z,2.50
2022-07-29T05:38:37.382Z,2.67
2022-07-29T05:41:05.282Z,2.60
2022-07-29T05:43:32.752Z,2.42
2022-07-29T05:45:59.806Z,2.55
2022-07-29T05:48:26.575Z,1.92
2022-07-29T05:50:53.424Z,2.25
2022-07-29T05:53:20.813Z,2.50
2022-07-29T05:55:49.200Z,2.42
2022-07-29T05:58:15.895Z,2.35
2022-07-29T06:00:42.437Z,2.40
2022-07-29T06:03:09.213Z,2.45
2022-07-29T06:05:35.886Z,2.50
2022-07-29T06:08:02.693Z,2.35
2022-07-29T06:10:29.364Z,2.33
2022-07-29T06:12:55.917Z,2.30
2022-07-29T06:15:22.509Z,2.28
2022-07-29T06:18:00.766Z,2.80
2022-07-29T06:20:32.695Z,2.40
2022-07-29T06:25:26.549Z,2.67
2022-07-29T06:27:53.288Z,2.88
2022-07-29T06:30:19.877Z,2.50
2022-07-29T06:32:46.540Z,2.38
2022-07-29T06:35:38.282Z,2.30
2022-07-29T06:38:00.056Z,2.38
2022-07-29T06:40:45.879Z,2.70
2022-07-29T06:43:12.678Z,2.50
2022-07-29T06:45:42.039Z,2.35
2022-07-29T06:48:09.147Z,2.25
2022-07-29T06:50:35.651Z,2.35
2022-07-29T06:53:02.103Z,2.35
2022-07-29T06:55:28.610Z,2.60
2022-07-29T06:57:55.063Z,2.47
2022-07-29T07:00:21.567Z,2.20
2022-07-29T07:02:48.094Z,2.75
2022-07-29T07:05:14.720Z,2.30
2022-07-29T07:07:43.354Z,2.30
2022-07-29T07:10:09.973Z,2.40
2022-07-29T07:12:36.699Z,2.22
2022-07-29T07:15:04.020Z,2.17
2022-07-29T07:17:30.553Z,2.20
2022-07-29T07:19:57.001Z,2.13
2022-07-29T07:22:23.440Z,2.60
2022-07-29T07:24:49.839Z,2.20
2022-07-29T07:27:16.393Z,2.45
2022-07-29T07:29:46.597Z,2.17
2022-07-29T07:32:14.382Z,2.65
2022-07-29T07:34:40.968Z,2.30
2022-07-29T07:37:07.479Z,2.45
2022-07-29T07:39:33.945Z,2.33
2022-07-29T07:42:00.474Z,2.40
2022-07-29T07:44:26.921Z,2.30
2022-07-29T07:46:53.488Z,2.10
2022-07-29T07:49:21.477Z,2.33
2022-07-29T07:51:50.670Z,2.63
2022-07-29T07:54:18.260Z,2.72
2022-07-29T07:56:45.094Z,2.80
2022-07-29T07:59:11.739Z,2.17
2022-07-29T08:01:48.063Z,2.60
2022-07-29T08:04:27.300Z,2.47
2022-07-29T08:06:57.673Z,2.80
2022-07-29T08:09:30.358Z,2.72
2022-07-29T08:11:58.514Z,2.38
2022-07-29T08:14:24.980Z,2.63
2022-07-29T08:16:52.275Z,2.30
2022-07-29T08:19:19.262Z,2.40
2022-07-29T08:21:46.177Z,2.60
2022-07-29T08:24:31.144Z,2.50
2022-07-29T08:26:57.695Z,2.38
2022-07-29T08:29:24.218Z,2.63
2022-07-29T08:31:51.020Z,2.47
2022-07-29T08:34:18.137Z,2.20
2022-07-29T08:36:44.816Z,2.28
2022-07-29T08:39:17.355Z,2.25
2022-07-29T08:41:57.428Z,2.70
2022-07-29T08:44:29.650Z,2.42
2022-07-29T08:46:57.749Z,2.25
2022-07-29T08:49:24.433Z,2.28
2022-07-29T08:51:52.205Z,2.45
2022-07-29T08:54:19.654Z,2.65
2022-07-29T08:56:50.821Z,3.10
2022-07-29T08:59:24.025Z,2.83
2022-07-29T09:01:55.162Z,2.70
2022-07-29T09:04:23.534Z,2.70
2022-07-29T09:06:53.175Z,2.78
2022-07-29T09:09:19.875Z,2.30
2022-07-29T09:11:46.533Z,2.75
2022-07-29T09:14:14.503Z,2.90
2022-07-29T09:16:57.261Z,2.95
2022-07-29T09:19:32.379Z,2.92
2022-07-29T09:22:03.823Z,2.97
2022-07-29T09:24:46.388Z,2.58
2022-07-29T09:27:29.914Z,2.95
2022-07-29T09:30:08.361Z,2.58
2022-07-29T09:32:55.380Z,2.60
2022-07-29T09:35:24.610Z,3.03
2022-07-29T09:37:54.328Z,2.65
2022-07-29T09:40:29.676Z,2.83
2022-07-29T09:42:58.187Z,2.80
2022-07-29T09:45:32.745Z,2.70
2022-07-29T09:48:01.376Z,2.88
2022-07-29T09:50:45.244Z,2.67
2022-07-29T09:53:12.372Z,2.67
2022-07-29T09:55:52.361Z,2.78
2022-07-29T09:58:22.345Z,2.90
2022-07-29T10:00:50.774Z,2.88
2022-07-29T10:03:18.648Z,2.65
2022-07-29T10:05:46.757Z,2.65
2022-07-29T10:08:13.888Z,2.75
2022-07-29T10:10:43.237Z,2.95
2022-07-29T10:13:15.733Z,3.15
2022-07-29T10:15:46.094Z,2.95
2022-07-29T10:18:18.463Z,2.97
2022-07-29T10:20:49.315Z,2.70
2022-07-29T10:23:15.980Z,3.17
2022-07-29T10:25:46.401Z,2.72
2022-07-29T10:28:16.530Z,2.95
2022-07-29T10:30:49.965Z,2.40
2022-07-29T10:33:42.621Z,2.15
2022-07-29T10:36:17.462Z,2.22
2022-07-29T10:39:00.612Z,2.30
2022-07-29T10:41:50.542Z,2.30
2022-07-29T10:44:24.544Z,2.10
2022-07-29T10:46:52.859Z,2.63
2022-07-29T10:49:30.496Z,2.90
2022-07-29T10:52:10.306Z,2.60
2022-07-29T10:54:37.365Z,2.50
2022-07-29T10:57:14.440Z,3.03
2022-07-29T10:59:42.941Z,2.95
2022-07-29T11:02:41.376Z,2.13
2022-07-29T11:05:14.115Z,2.20
2022-07-29T11:08:02.407Z,2.40
2022-07-29T11:10:31.426Z,2.42
2022-07-29T11:12:59.142Z,2.15
2022-07-29T11:15:28.681Z,1.98
2022-07-29T11:17:59.464Z,2.30
2022-07-29T11:20:47.806Z,2.45
2022-07-29T11:23:33.904Z,2.28
2022-07-29T11:26:13.518Z,2.08
2022-07-29T11:28:44.253Z,2.30
2022-07-29T11:31:12.031Z,2.28
2022-07-29T11:33:56.114Z,2.10
2022-07-29T11:36:28.196Z,1.67
2022-07-29T11:39:27.337Z,1.88
2022-07-29T11:42:32.290Z,1.65
2022-07-29T11:48:29.246Z,2.35
2022-07-29T11:50:48.526Z,2.08
2022-07-29T11:53:16.276Z,1.80
2022-07-29T11:56:03.373Z,1.90
2022-07-29T11:58:31.859Z,1.77
2022-07-29T12:01:04.607Z,1.55
2022-07-29T12:06:21.010Z,1.45
2022-07-29T12:08:47.946Z,2.60
2022-07-29T12:11:20.574Z,1.52
2022-07-29T12:13:49.231Z,1.65
2022-07-29T12:16:26.069Z,1.80
2022-07-29T12:19:00.555Z,1.77
2022-07-29T12:21:31.210Z,2.10
2022-07-29T12:24:03.431Z,1.85
2022-07-29T12:26:35.962Z,1.48
2022-07-29T12:29:03.369Z,1.42
2022-07-29T12:31:44.169Z,1.60
2022-07-29T12:34:13.220Z,1.67
2022-07-29T12:36:41.278Z,1.67
2022-07-29T12:39:08.016Z,1.92
2022-07-29T12:41:39.517Z,1.70
2022-07-29T12:44:06.019Z,1.88
2022-07-29T12:46:32.512Z,1.80
2022-07-29T12:48:59.562Z,1.67
2022-07-29T12:51:39.615Z,1.40
2022-07-29T12:54:15.676Z,1.67
2022-07-29T12:56:44.918Z,1.70
2022-07-29T12:59:23.017Z,1.48
2022-07-29T13:01:52.599Z,1.38
2022-07-29T13:04:33.844Z,1.45
2022-07-29T13:09:49.392Z,1.80
2022-07-29T13:12:16.091Z,1.40
2022-07-29T13:14:45.134Z,1.58
2022-07-29T13:17:21.654Z,1.30
2022-07-29T13:20:05.621Z,1.38
2022-07-29T13:22:35.617Z,1.25
2022-07-29T13:25:08.604Z,1.20
2022-07-29T13:27:39.421Z,1.00
2022-07-29T13:32:37.467Z,1.27
2022-07-29T13:35:10.918Z,1.20
2022-07-29T13:37:40.483Z,1.00
2022-07-29T13:40:14.341Z,1.33
2022-07-29T13:42:42.169Z,1.20
2022-07-29T13:45:11.714Z,1.25
2022-07-29T13:47:39.315Z,1.10
2022-07-29T13:50:12.709Z,1.27
2022-07-29T13:52:42.834Z,1.10
2022-07-29T13:55:12.100Z,1.10
2022-07-29T13:57:38.756Z,1.20
2022-07-29T14:00:07.917Z,1.42
2022-07-29T14:02:37.872Z,1.25
2022-07-29T14:05:08.512Z,1.10
2022-07-29T14:07:35.435Z,0.90
2022-07-29T14:10:02.002Z,1.08
2022-07-29T14:12:28.930Z,1.13
2022-07-29T14:14:55.659Z,1.13
2022-07-29T14:17:22.718Z,1.05
2022-07-29T14:19:49.657Z,1.00
2022-07-29T14:22:16.372Z,1.30
2022-07-29T14:24:43.045Z,1.08
2022-07-29T14:27:09.904Z,1.17
2022-07-29T14:29:38.737Z,1.17
2022-07-29T14:32:08.361Z,1.40
2022-07-29T14:37:03.791Z,1.30
2022-07-29T14:39:32.026Z,1.30
2022-07-29T14:41:59.629Z,1.40
2022-07-29T14:44:32.361Z,1.30
2022-07-29T14:47:00.761Z,1.40
2022-07-29T14:49:28.128Z,1.42
2022-07-29T14:51:56.717Z,1.20
2022-07-29T14:54:33.867Z,1.20
2022-07-29T14:57:00.874Z,1.42
2022-07-29T14:59:32.575Z,1.48
2022-07-29T15:01:59.968Z,1.52
2022-07-29T15:04:29.552Z,1.15
2022-07-29T15:06:56.203Z,1.90
2022-07-29T15:09:22.747Z,1.30
2022-07-29T15:11:49.344Z,1.33
2022-07-29T15:14:15.954Z,1.40
2022-07-29T15:16:44.033Z,1.67
2022-07-29T15:19:13.359Z,1.65
2022-07-29T15:21:47.973Z,1.40
2022-07-29T15:24:19.174Z,1.40
2022-07-29T15:26:49.257Z,1.40
2022-07-29T15:29:16.109Z,1.10
2022-07-29T15:31:45.659Z,1.42
2022-07-29T15:34:24.271Z,1.30
2022-07-29T15:36:53.405Z,1.65
2022-07-29T15:39:22.237Z,1.60
2022-07-29T15:41:53.196Z,1.70
2022-07-29T15:44:21.020Z,1.33
2022-07-29T15:47:04.137Z,1.40
2022-07-29T15:49:46.617Z,1.23
2022-07-29T15:52:25.951Z,1.10
2022-07-29T15:54:55.519Z,1.40
2022-07-29T15:57:22.696Z,1.40
2022-07-29T15:59:49.400Z,1.30
2022-07-29T16:02:16.088Z,1.02
2022-07-29T16:04:42.704Z,1.10
2022-07-29T16:07:12.362Z,1.20
2022-07-29T16:09:41.144Z,1.20
2022-07-29T16:12:13.659Z,1.40
2022-07-29T16:14:42.038Z,1.00
2022-07-29T16:17:08.725Z,1.50
2022-07-29T16:19:40.663Z,1.02
2022-07-29T16:22:07.593Z,1.30
2022-07-29T16:24:41.837Z,1.02
2022-07-29T16:27:09.124Z,1.17
2022-07-29T16:29:36.964Z,1.52
2022-07-29T16:32:05.528Z,1.27
2022-07-29T16:34:32.128Z,1.30
2022-07-29T16:36:59.060Z,1.40
2022-07-29T16:39:25.950Z,1.20
2022-07-29T16:41:54.059Z,2.00
2022-07-29T16:44:22.725Z,1.35
2022-07-29T16:46:51.785Z,1.55
2022-07-29T16:49:24.551Z,1.35
2022-07-29T16:51:54.933Z,1.23
2022-07-29T16:54:21.613Z,1.52
2022-07-29T16:56:48.253Z,1.40
2022-07-29T16:59:15.084Z,1.23
2022-07-29T17:01:41.717Z,1.60
2022-07-29T17:04:08.486Z,1.95
2022-07-29T17:06:40.577Z,1.60
2022-07-29T17:09:09.005Z,1.30
2022-07-29T17:11:51.806Z,0.98
2022-07-29T17:14:23.388Z,1.38
2022-07-29T17:16:59.027Z,1.40
2022-07-29T17:19:33.521Z,1.42
2022-07-29T17:22:12.913Z,1.50
2022-07-29T17:24:42.549Z,1.50
2022-07-29T17:27:10.488Z,1.25
2022-07-29T17:29:38.846Z,1.38
2022-07-29T17:32:08.221Z,1.50
2022-07-29T17:34:39.273Z,1.50
2022-07-29T17:37:08.199Z,1.75
2022-07-29T17:39:40.584Z,1.63
2022-07-29T17:42:12.822Z,1.45
2022-07-29T17:44:40.018Z,1.38
2022-07-29T17:47:10.656Z,1.50
2022-07-29T17:49:43.956Z,1.27
2022-07-29T17:52:11.414Z,1.50
2022-07-29T17:54:38.027Z,1.35
2022-07-29T17:57:04.733Z,1.42
2022-07-29T17:59:31.695Z,1.50
2022-07-29T18:01:58.587Z,1.58
2022-07-29T18:04:25.345Z,1.40
2022-07-29T18:06:52.570Z,1.40
2022-07-29T18:09:19.873Z,1.80
2022-07-29T18:11:47.560Z,1.75
2022-07-29T18:14:14.688Z,1.50
2022-07-29T18:16:41.330Z,1.45
2022-07-29T18:19:11.188Z,1.85
2022-07-29T18:21:45.724Z,1.95
2022-07-29T18:24:21.861Z,1.70
2022-07-29T18:26:48.585Z,1.70
2022-07-29T18:29:15.223Z,1.60
2022-07-29T18:31:42.169Z,1.40
2022-07-29T18:34:08.915Z,2.00
2022-07-29T18:36:35.655Z,1.40
2022-07-29T18:39:02.459Z,1.40
2022-07-29T18:41:29.149Z,1.55
2022-07-29T18:43:55.789Z,1.45
2022-07-29T18:46:22.407Z,1.50
2022-07-29T18:48:50.233Z,1.30
2022-07-29T18:51:17.276Z,1.60
2022-07-29T18:53:44.266Z,1.40
2022-07-29T18:56:10.929Z,1.42
2022-07-29T18:58:38.809Z,1.30
2022-07-29T19:01:05.981Z,1.70
2022-07-29T19:03:32.658Z,1.60
2022-07-29T19:05:59.236Z,1.65
2022-07-29T19:08:25.734Z,1.80
2022-07-29T19:10:53.305Z,1.63
2022-07-29T19:13:19.919Z,1.80
2022-07-29T19:15:46.487Z,1.83
2022-07-29T19:18:13.697Z,2.47
2022-07-29T19:20:40.718Z,2.00
2022-07-29T19:23:08.878Z,2.00
2022-07-29T19:25:35.849Z,1.80
2022-07-29T19:28:02.470Z,1.90
2022-07-29T19:30:29.319Z,1.95
2022-07-29T19:32:55.891Z,1.67
2022-07-29T19:35:25.106Z,1.52
2022-07-29T19:37:52.593Z,1.38
2022-07-29T19:40:19.691Z,2.03
2022-07-29T19:42:48.116Z,1.85
2022-07-29T19:45:14.799Z,1.45
2022-07-29T19:47:41.286Z,1.55
2022-07-29T19:50:08.570Z,1.60
2022-07-29T19:52:36.294Z,2.03
2022-07-29T19:55:07.623Z,1.67
2022-07-29T19:57:40.678Z,1.45
2022-07-29T20:00:11.284Z,1.58
2022-07-29T20:02:38.749Z,1.88
2022-07-29T20:05:05.946Z,1.60
2022-07-29T20:07:32.455Z,1.80
2022-07-29T20:09:59.339Z,3.30
2022-07-29T20:12:25.921Z,1.60
2022-07-29T20:14:52.749Z,1.70
2022-07-29T20:17:22.098Z,1.80
2022-07-29T20:19:49.733Z,1.65
2022-07-29T20:22:21.117Z,1.73
2022-07-29T20:24:48.578Z,1.58
2022-07-29T20:27:15.055Z,1.58
2022-07-29T20:29:41.568Z,1.38
2022-07-29T20:32:08.114Z,1.52
2022-07-29T20:34:34.755Z,1.70
2022-07-29T20:37:04.340Z,1.67
2022-07-29T20:39:30.839Z,1.85
2022-07-29T20:41:57.294Z,1.52
2022-07-29T20:44:24.289Z,1.60
2022-07-29T20:46:50.765Z,1.63
2022-07-29T20:49:17.334Z,1.73
2022-07-29T20:51:44.258Z,1.70
2022-07-29T20:54:11.212Z,1.30
2022-07-29T20:56:38.061Z,1.50
2022-07-29T20:59:04.478Z,1.40
2022-07-29T21:01:31.016Z,2.08
2022-07-29T21:03:57.449Z,1.90
2022-07-29T21:06:23.857Z,1.60
2022-07-29T21:08:50.248Z,1.73
2022-07-29T21:11:16.641Z,1.73
2022-07-29T21:13:45.326Z,2.47
2022-07-29T21:16:14.897Z,1.55
2022-07-29T21:18:45.857Z,1.60
2022-07-29T21:21:13.905Z,1.65
2022-07-29T21:23:41.193Z,1.60
2022-07-29T21:26:12.530Z,1.90
2022-07-29T21:28:42.168Z,2.00
2022-07-29T21:31:11.049Z,1.60
2022-07-29T21:33:38.321Z,1.48
2022-07-29T21:38:52.226Z,1.55
2022-07-29T21:41:19.049Z,2.25
2022-07-29T21:43:46.016Z,2.15
2022-07-29T21:46:12.526Z,2.00
2022-07-29T21:48:43.875Z,1.90
2022-07-29T21:51:11.008Z,1.77
2022-07-29T21:53:37.503Z,1.80
2022-07-29T21:56:04.088Z,1.70
2022-07-29T21:58:34.890Z,1.38
2022-07-29T22:01:01.378Z,1.75
2022-07-29T22:03:29.629Z,1.70
2022-07-29T22:05:56.585Z,1.70
2022-07-29T22:08:22.997Z,1.77
2022-07-29T22:10:49.425Z,2.20
2022-07-29T22:13:15.933Z,1.67
2022-07-29T22:15:46.916Z,1.70
2022-07-29T22:18:14.001Z,1.90
2022-07-29T22:20:48.161Z,1.80
2022-07-29T22:23:14.778Z,2.03
2022-07-29T22:25:41.214Z,1.98
2022-07-29T22:28:07.648Z,1.63
2022-07-29T22:30:34.121Z,1.77
2022-07-29T22:33:00.579Z,2.25
2022-07-29T22:35:27.204Z,2.03
2022-07-29T22:37:54.127Z,2.08
2022-07-29T22:40:20.595Z,2.00
2022-07-29T22:42:47.107Z,2.40
2022-07-29T22:45:13.464Z,2.50
2022-07-29T22:47:48.429Z,2.10
2022-07-29T22:50:15.752Z,2.63
2022-07-29T22:52:42.251Z,2.20
2022-07-29T22:55:09.061Z,2.47
2022-07-29T22:57:35.519Z,2.60
2022-07-29T23:00:02.325Z,2.35
2022-07-29T23:02:29.122Z,2.80
2022-07-29T23:04:55.878Z,2.40
2022-07-29T23:07:23.021Z,2.40
2022-07-29T23:09:49.460Z,2.60
2022-07-29T23:12:15.856Z,2.15
2022-07-29T23:14:42.349Z,3.13
2022-07-29T23:17:08.862Z,2.63
2022-07-29T23:19:35.647Z,2.50
2022-07-29T23:22:02.082Z,3.13
2022-07-29T23:24:28.901Z,3.72
2022-07-29T23:26:58.719Z,3.63
2022-07-29T23:29:26.467Z,3.50
2022-07-29T23:31:52.865Z,3.70
2022-07-29T23:34:19.307Z,3.55
2022-07-29T23:36:45.844Z,4.13
2022-07-29T23:39:13.190Z,3.50
2022-07-29T23:41:39.754Z,3.50
2022-07-29T23:44:06.400Z,3.92
2022-07-29T23:46:32.918Z,3.70
2022-07-29T23:48:59.784Z,3.50
2022-07-29T23:51:26.507Z,4.70
2022-07-29T23:53:54.300Z,4.30
2022-07-29T23:56:21.261Z,3.67
2022-07-29T23:58:47.757Z,3.58
